createdAt,value
2018-08-09T00:00:35.964Z,77.29
2018-08-09T00:01:35.712Z,77.38
2018-08-09T00:02:35.707Z,77.63
2018-08-09T00:03:35.696Z,78.11
2018-08-09T00:04:35.951Z,77.92
2018-08-09T00:05:35.946Z,78.21
2018-08-09T00:06:35.944Z,79.75
2018-08-09T00:07:35.688Z,79.65
2018-08-09T00:08:35.941Z,77.06
2018-08-09T00:09:35.943Z,76.39
2018-08-09T00:10:35.941Z,77.34
2018-08-09T00:11:35.937Z,79.36
2018-08-09T00:12:35.680Z,81.09
2018-08-09T00:13:35.936Z,78.98
2018-08-09T00:14:35.933Z,77.92
2018-08-09T00:15:35.932Z,77.44
2018-08-09T00:16:35.726Z,77.44
2018-08-09T00:17:35.668Z,77.53
2018-08-09T00:18:35.926Z,76.29
2018-08-09T00:19:35.926Z,75.13
2018-08-09T00:20:35.923Z,74.62
2018-08-09T00:21:35.925Z,73.18
2018-08-09T00:22:35.917Z,72.99
2018-08-09T00:23:35.913Z,74.23
2018-08-09T00:24:35.658Z,75.04
2018-08-09T00:25:35.916Z,76.19
2018-08-09T00:26:35.909Z,77.11
2018-08-09T00:27:35.912Z,76.06
2018-08-09T00:28:35.905Z,74.62
2018-08-09T00:29:35.905Z,74.62
2018-08-09T00:30:35.907Z,76.44
2018-08-09T00:31:35.646Z,75.87
2018-08-09T00:32:35.641Z,74.33
2018-08-09T00:33:35.904Z,71.83
2018-08-09T00:34:35.900Z,71.73
2018-08-09T00:35:35.895Z,70.78
2018-08-09T00:36:35.901Z,68.66
2018-08-09T00:37:35.890Z,67.61
2018-08-09T00:38:35.631Z,66.74
2018-08-09T00:39:35.887Z,66.07
2018-08-09T00:40:35.627Z,65.97
2018-08-09T00:41:35.885Z,64.05
2018-08-09T00:42:35.880Z,62.71
2018-08-09T00:43:35.877Z,64.72
2018-08-09T00:44:35.622Z,65.59
2018-08-09T00:45:35.873Z,66.16
2018-08-09T00:46:35.876Z,67.13
2018-08-09T00:47:35.872Z,66.07
2018-08-09T00:48:35.868Z,65.97
2018-08-09T00:49:35.865Z,65.11
2018-08-09T00:50:35.904Z,66.36
2018-08-09T00:51:35.864Z,67.32
2018-08-09T00:52:35.606Z,68.57
2018-08-09T00:53:35.856Z,70.87
2018-08-09T00:54:35.852Z,70.97
2018-08-09T00:55:35.875Z,68.95
2018-08-09T00:56:35.849Z,70.39
2018-08-09T00:57:35.847Z,69.62
2018-08-09T00:58:35.843Z,69.24
2018-08-09T00:59:35.843Z,69.62
2018-08-09T01:00:35.841Z,68.76
2018-08-09T01:01:35.582Z,68.85
2018-08-09T01:02:35.580Z,70.45
2018-08-09T01:03:35.833Z,71.83
2018-08-09T01:04:35.832Z,70.45
2018-08-09T01:05:35.836Z,69.91
2018-08-09T01:06:35.833Z,68.15
2018-08-09T01:07:35.824Z,68.08
2018-08-09T01:08:35.565Z,69.97
2018-08-09T01:09:35.817Z,70.84
2018-08-09T01:10:35.815Z,70.55
2018-08-09T01:11:35.813Z,70.55
2018-08-09T01:12:35.819Z,71.22
2018-08-09T01:13:35.814Z,72.28
2018-08-09T01:14:35.812Z,71.61
2018-08-09T01:15:35.549Z,67.96
2018-08-09T01:16:35.805Z,66.52
2018-08-09T01:17:35.547Z,66.61
2018-08-09T01:18:35.800Z,67.96
2018-08-09T01:19:35.795Z,68.05
2018-08-09T01:20:35.796Z,68.05
2018-08-09T01:21:35.794Z,68.05
2018-08-09T01:22:35.791Z,67.76
2018-08-09T01:23:35.788Z,68.53
2018-08-09T01:24:35.785Z,69.97
2018-08-09T01:25:35.528Z,71.51
2018-08-09T01:26:35.778Z,72.85
2018-08-09T01:27:35.797Z,70.45
2018-08-09T01:28:35.777Z,69.68
2018-08-09T01:29:35.516Z,68.44
2018-08-09T01:30:35.773Z,68.44
2018-08-09T01:31:35.768Z,68.24
2018-08-09T01:32:35.783Z,69.87
2018-08-09T01:33:35.768Z,70.55
2018-08-09T01:34:35.505Z,71.8
2018-08-09T01:35:35.764Z,71.98
2018-08-09T01:36:35.758Z,71.61
2018-08-09T01:37:35.751Z,71.8
2018-08-09T01:38:35.758Z,70.84
2018-08-09T01:39:35.745Z,70.36
2018-08-09T01:40:35.745Z,69.49
2018-08-09T01:41:35.745Z,67.96
2018-08-09T01:42:35.742Z,67.09
2018-08-09T01:43:35.736Z,66.71
2018-08-09T01:44:35.735Z,68.53
2018-08-09T01:45:35.733Z,68.44
2018-08-09T01:46:35.735Z,68.53
2018-08-09T01:47:35.726Z,69.3
2018-08-09T01:48:35.724Z,69.4
2018-08-09T01:49:35.725Z,68.24
2018-08-09T01:50:35.463Z,68.63
2018-08-09T01:51:35.718Z,68.59
2018-08-09T01:52:35.717Z,66.58
2018-08-09T01:53:35.715Z,65.84
2018-08-09T01:54:35.453Z,65.33
2018-08-09T01:55:35.705Z,64.5
2018-08-09T01:56:35.701Z,64.59
2018-08-09T01:57:35.697Z,65.23
2018-08-09T01:58:35.694Z,65.36
2018-08-09T01:59:35.693Z,65.91
2018-08-09T02:00:35.693Z,64.37
2018-08-09T02:01:35.693Z,64.02
2018-08-09T02:02:35.690Z,64.37
2018-08-09T02:03:35.690Z,61.98
2018-08-09T02:04:35.756Z,61.11
2018-08-09T02:05:35.682Z,59.77
2018-08-09T02:06:35.678Z,59.19
2018-08-09T02:07:35.681Z,57.28
2018-08-09T02:08:35.765Z,57.95
2018-08-09T02:09:35.412Z,58.81
2018-08-09T02:10:35.410Z,59.58
2018-08-09T02:11:35.404Z,60.35
2018-08-09T02:12:35.657Z,61.69
2018-08-09T02:13:35.660Z,62.26
2018-08-09T02:14:35.656Z,61.49
2018-08-09T02:15:35.398Z,61.11
2018-08-09T02:16:35.648Z,59.77
2018-08-09T02:17:35.651Z,59
2018-08-09T02:18:35.648Z,56.6
2018-08-09T02:19:35.643Z,55.83
2018-08-09T02:20:35.640Z,55.16
2018-08-09T02:21:35.634Z,54.3
2018-08-09T02:22:35.381Z,54.58
2018-08-09T02:23:35.635Z,56.7
2018-08-09T02:24:35.371Z,56.7
2018-08-09T02:25:35.626Z,55.35
2018-08-09T02:26:35.623Z,56.6
2018-08-09T02:27:35.614Z,57.95
2018-08-09T02:28:35.617Z,59.09
2018-08-09T02:29:35.619Z,59.67
2018-08-09T02:30:35.625Z,59.67
2018-08-09T02:31:35.608Z,59
2018-08-09T02:32:35.602Z,57.43
2018-08-09T02:33:35.661Z,57.56
2018-08-09T02:34:35.342Z,55.83
2018-08-09T02:35:35.597Z,54.97
2018-08-09T02:36:35.589Z,53.6
2018-08-09T02:37:35.591Z,53.79
2018-08-09T02:38:35.595Z,54.46
2018-08-09T02:39:35.585Z,54.56
2018-08-09T02:40:35.583Z,56.38
2018-08-09T02:41:35.644Z,58.01
2018-08-09T02:42:35.577Z,57.72
2018-08-09T02:43:35.572Z,57.82
2018-08-09T02:44:35.314Z,58.11
2018-08-09T02:45:35.312Z,58.01
2018-08-09T02:46:35.326Z,55.9
2018-08-09T02:47:35.568Z,55.42
2018-08-09T02:48:35.560Z,54.17
2018-08-09T02:49:35.554Z,52.26
2018-08-09T02:50:35.550Z,50.92
2018-08-09T02:51:35.302Z,51.01
2018-08-09T02:52:35.290Z,48.52
2018-08-09T02:53:35.289Z,48.13
2018-08-09T02:54:35.544Z,46.5
2018-08-09T02:55:35.537Z,47.08
2018-08-09T02:56:35.541Z,47.27
2018-08-09T02:57:35.278Z,48.13
2018-08-09T02:58:35.533Z,47.37
2018-08-09T02:59:35.526Z,47.34
2018-08-09T03:00:35.526Z,48.23
2018-08-09T03:01:35.520Z,47.06
2018-08-09T03:02:35.522Z,49.48
2018-08-09T03:03:35.519Z,50.92
2018-08-09T03:04:35.511Z,51.59
2018-08-09T03:05:35.507Z,52.33
2018-08-09T03:06:35.519Z,52.42
2018-08-09T03:07:35.247Z,52.62
2018-08-09T03:08:35.535Z,52.62
2018-08-09T03:09:35.497Z,53.19
2018-08-09T03:10:35.497Z,52.23
2018-08-09T03:11:35.241Z,51.65
2018-08-09T03:12:35.484Z,50.99
2018-08-09T03:13:35.482Z,50.32
2018-08-09T03:14:35.477Z,49.74
2018-08-09T03:15:35.474Z,49.74
2018-08-09T03:16:35.477Z,50.32
2018-08-09T03:17:35.468Z,50.41
2018-08-09T03:18:35.467Z,49.55
2018-08-09T03:19:35.461Z,48.59
2018-08-09T03:20:35.203Z,48.49
2018-08-09T03:21:35.456Z,48.3
2018-08-09T03:22:35.455Z,47.25
2018-08-09T03:23:35.449Z,46.58
2018-08-09T03:24:35.449Z,46.1
2018-08-09T03:25:35.443Z,45.62
2018-08-09T03:26:35.441Z,45.43
2018-08-09T03:27:35.441Z,45.14
2018-08-09T03:28:35.434Z,44.76
2018-08-09T03:29:35.175Z,43.6
2018-08-09T03:30:35.431Z,42.46
2018-08-09T03:31:35.442Z,42.27
2018-08-09T03:32:35.422Z,41.21
2018-08-09T03:33:35.418Z,42.65
2018-08-09T03:34:35.414Z,43.8
2018-08-09T03:35:35.154Z,44.56
2018-08-09T03:36:35.412Z,45.04
2018-08-09T03:37:35.403Z,44.56
2018-08-09T03:38:35.400Z,44.37
2018-08-09T03:39:35.399Z,44.37
2018-08-09T03:40:35.398Z,44.56
2018-08-09T03:41:35.388Z,44.09
2018-08-09T03:42:35.391Z,43.8
2018-08-09T03:43:35.386Z,43.51
2018-08-09T03:44:35.385Z,43.9
2018-08-09T03:45:35.384Z,43.8
2018-08-09T03:46:35.371Z,43.9
2018-08-09T03:47:35.371Z,44.09
2018-08-09T03:48:35.370Z,43.99
2018-08-09T03:49:35.364Z,44.18
2018-08-09T03:50:35.365Z,44.47
2018-08-09T03:51:35.357Z,44.85
2018-08-09T03:52:35.358Z,45.23
2018-08-09T03:53:35.099Z,45.23
2018-08-09T03:54:35.352Z,44.85
2018-08-09T03:55:35.343Z,45.14
2018-08-09T03:56:35.341Z,44.54
2018-08-09T03:57:35.333Z,43.9
2018-08-09T03:58:35.331Z,43.2
2018-08-09T03:59:35.423Z,42.94
2018-08-09T04:00:35.329Z,42.74
2018-08-09T04:01:35.323Z,43.51
2018-08-09T04:02:35.067Z,44.27
2018-08-09T04:03:35.313Z,43.97
2018-08-09T04:04:35.315Z,43.99
2018-08-09T04:05:35.312Z,43.8
2018-08-09T04:06:35.308Z,42.94
2018-08-09T04:07:35.305Z,43.03
2018-08-09T04:08:35.301Z,43.6
2018-08-09T04:09:35.040Z,43.7
2018-08-09T04:10:35.294Z,44.56
2018-08-09T04:11:35.300Z,45.52
2018-08-09T04:12:35.286Z,46.19
2018-08-09T04:13:35.281Z,45.72
2018-08-09T04:14:35.287Z,45.14
2018-08-09T04:15:35.280Z,42.65
2018-08-09T04:16:35.017Z,42.27
2018-08-09T04:17:35.269Z,42.46
2018-08-09T04:18:35.272Z,42.84
2018-08-09T04:19:35.263Z,42.65
2018-08-09T04:20:35.268Z,42.46
2018-08-09T04:21:35.264Z,41.78
2018-08-09T04:22:35.251Z,41.88
2018-08-09T04:23:35.253Z,41.78
2018-08-09T04:24:35.241Z,41.78
2018-08-09T04:25:35.241Z,42.36
2018-08-09T04:26:35.337Z,43.51
2018-08-09T04:27:35.237Z,43.6
2018-08-09T04:28:34.975Z,43.51
2018-08-09T04:29:35.225Z,42.65
2018-08-09T04:30:35.232Z,43.6
2018-08-09T04:31:35.222Z,43.8
2018-08-09T04:32:35.219Z,43.41
2018-08-09T04:33:35.223Z,43.82
2018-08-09T04:34:35.210Z,45.07
2018-08-09T04:35:35.216Z,44.49
2018-08-09T04:36:34.948Z,44.59
2018-08-09T04:37:35.207Z,45.93
2018-08-09T04:38:35.194Z,47.27
2018-08-09T04:39:35.194Z,47.17
2018-08-09T04:40:34.943Z,47.17
2018-08-09T04:41:35.187Z,46.7
2018-08-09T04:42:35.186Z,46.31
2018-08-09T04:43:34.926Z,46.41
2018-08-09T04:44:34.922Z,45.45
2018-08-09T04:45:34.918Z,45.37
2018-08-09T04:46:35.172Z,45.93
2018-08-09T04:47:35.175Z,45.76
2018-08-09T04:48:35.165Z,46.24
2018-08-09T04:49:35.161Z,46.53
2018-08-09T04:50:35.162Z,46.62
2018-08-09T04:51:35.152Z,47.49
2018-08-09T04:52:35.162Z,48.83
2018-08-09T04:53:35.151Z,49.12
2018-08-09T04:54:35.148Z,48.64
2018-08-09T04:55:35.143Z,49.88
2018-08-09T04:56:35.142Z,51.04
2018-08-09T04:57:35.137Z,51.04
2018-08-09T04:58:34.880Z,51.61
2018-08-09T04:59:34.875Z,50.96
2018-08-09T05:00:35.130Z,52.09
2018-08-09T05:01:35.129Z,52.28
2018-08-09T05:02:35.126Z,53.27
2018-08-09T05:03:34.865Z,54.04
2018-08-09T05:04:35.120Z,54.52
2018-08-09T05:05:34.856Z,53.27
2018-08-09T05:06:35.114Z,52.79
2018-08-09T05:07:35.103Z,52.98
2018-08-09T05:08:34.847Z,53.66
2018-08-09T05:09:35.105Z,53.56
2018-08-09T05:10:35.099Z,54.8
2018-08-09T05:11:35.095Z,56.05
2018-08-09T05:12:35.097Z,57.59
2018-08-09T05:13:35.091Z,56.53
2018-08-09T05:14:35.088Z,55.86
2018-08-09T05:15:35.092Z,58.84
2018-08-09T05:16:35.081Z,60.28
2018-08-09T05:17:34.827Z,60.57
2018-08-09T05:18:35.084Z,61.46
2018-08-09T05:19:35.074Z,62.99
2018-08-09T05:20:35.077Z,63.67
2018-08-09T05:21:35.070Z,63.67
2018-08-09T05:22:34.811Z,62.61
2018-08-09T05:23:34.810Z,61.75
2018-08-09T05:24:35.066Z,62.71
2018-08-09T05:25:35.058Z,62.81
2018-08-09T05:26:35.167Z,64.15
2018-08-09T05:27:35.060Z,65.23
2018-08-09T05:28:35.055Z,66.58
2018-08-09T05:29:35.054Z,66.49
2018-08-09T05:30:35.045Z,66.49
2018-08-09T05:31:35.046Z,68.02
2018-08-09T05:32:35.047Z,68.41
2018-08-09T05:33:35.045Z,69.75
2018-08-09T05:34:35.049Z,69.46
2018-08-09T05:35:35.038Z,69.66
2018-08-09T05:36:35.034Z,69.75
2018-08-09T05:37:35.032Z,68.79
2018-08-09T05:38:35.029Z,69.79
2018-08-09T05:39:35.024Z,70.17
2018-08-09T05:40:35.039Z,67.77
2018-08-09T05:41:35.024Z,66.33
2018-08-09T05:42:34.762Z,66.61
2018-08-09T05:43:35.017Z,69.5
2018-08-09T05:44:35.016Z,71.14
2018-08-09T05:45:35.015Z,72.86
2018-08-09T05:46:35.013Z,77.58
2018-08-09T05:47:35.016Z,81.71
2018-08-09T05:48:34.755Z,83.06
2018-08-09T05:49:35.002Z,84.4
2018-08-09T05:50:34.748Z,87.62
2018-08-09T05:51:35.000Z,88.48
2018-08-09T05:52:35.021Z,87.71
2018-08-09T05:53:34.999Z,90.31
2018-08-09T05:54:35.004Z,91.75
2018-08-09T05:55:34.994Z,92.71
2018-08-09T05:56:34.995Z,92.13
2018-08-09T05:57:34.989Z,94.25
2018-08-09T05:58:34.827Z,93.19
2018-08-09T05:59:34.988Z,93
2018-08-09T06:00:34.985Z,91.75
2018-08-09T06:01:34.984Z,90.79
2018-08-09T06:02:34.988Z,89.83
2018-08-09T06:03:34.725Z,92.28
2018-08-09T06:04:34.983Z,95.17
2018-08-09T06:05:34.993Z,96.12
2018-08-09T06:06:34.982Z,96.8
2018-08-09T06:07:34.978Z,97.96
2018-08-09T06:08:34.974Z,99.78
2018-08-09T06:09:34.716Z,99.99
2018-08-09T06:10:34.971Z,99.99
2018-08-09T06:11:34.967Z,99.88
2018-08-09T06:12:34.968Z,99.3
2018-08-09T06:13:35.187Z,99.21
2018-08-09T06:14:34.709Z,97.57
2018-08-09T06:15:34.961Z,98.54
2018-08-09T06:16:34.963Z,98.68
2018-08-09T06:17:34.964Z,99.74
2018-08-09T06:18:34.966Z,99.99
2018-08-09T06:19:34.959Z,99.99
2018-08-09T06:20:34.960Z,99.99
2018-08-09T06:21:34.699Z,99.99
2018-08-09T06:22:34.951Z,99.99
2018-08-09T06:23:34.953Z,99.99
2018-08-09T06:24:34.952Z,99.99
2018-08-09T06:25:34.959Z,99.99
2018-08-09T06:26:35.032Z,98.97
2018-08-09T06:27:34.952Z,99.99
2018-08-09T06:28:34.984Z,99.99
2018-08-09T06:29:34.710Z,99.99
2018-08-09T06:30:34.955Z,99.99
2018-08-09T06:31:34.945Z,98.92
2018-08-09T06:32:34.943Z,99.98
2018-08-09T06:33:35.244Z,99.99
2018-08-09T06:34:34.942Z,99.99
2018-08-09T06:35:34.690Z,99.99
2018-08-09T06:36:34.940Z,99.99
2018-08-09T06:37:34.941Z,99.99
2018-08-09T06:38:34.684Z,99.99
2018-08-09T06:39:34.943Z,99.99
2018-08-09T06:40:34.938Z,99.99
2018-08-09T06:41:34.683Z,99.99
2018-08-09T06:42:34.938Z,99.99
2018-08-09T06:43:34.937Z,99.99
2018-08-09T06:44:34.939Z,99.99
2018-08-09T06:45:34.935Z,99.99
2018-08-09T06:46:34.935Z,99.99
2018-08-09T06:47:34.969Z,99.99
2018-08-09T06:48:34.937Z,99.99
2018-08-09T06:49:34.937Z,99.99
2018-08-09T06:50:34.937Z,99.99
2018-08-09T06:51:34.940Z,99.99
2018-08-09T06:52:34.934Z,99.99
2018-08-09T06:53:34.935Z,99.99
2018-08-09T06:54:34.676Z,99.99
2018-08-09T06:55:34.942Z,99.99
2018-08-09T06:56:34.676Z,99.99
2018-08-09T06:57:34.931Z,99.99
2018-08-09T06:58:34.934Z,88.37
2018-08-09T06:59:34.938Z,87.77
2018-08-09T07:00:34.940Z,75.53
2018-08-09T07:01:34.935Z,77.94
2018-08-09T07:02:34.682Z,71.78
2018-08-09T07:03:34.948Z,63.87
2018-08-09T07:04:34.690Z,53.97
2018-08-09T07:05:34.948Z,50.58
2018-08-09T07:06:34.950Z,48.39
2018-08-09T07:07:34.959Z,45.29
2018-08-09T07:08:34.962Z,45.31
2018-08-09T07:09:34.964Z,44.67
2018-08-09T07:10:34.959Z,44.2
2018-08-09T07:11:34.707Z,42.85
2018-08-09T07:12:34.969Z,38.57
2018-08-09T07:13:34.973Z,40.33
2018-08-09T07:14:34.988Z,39.47
2018-08-09T07:15:34.983Z,36.92
2018-08-09T07:16:34.999Z,35.75
2018-08-09T07:17:34.735Z,35.37
2018-08-09T07:18:35.000Z,35.08
2018-08-09T07:19:35.012Z,34.31
2018-08-09T07:20:35.009Z,34.31
2018-08-09T07:21:35.017Z,34.62
2018-08-09T07:22:35.024Z,35.5
2018-08-09T07:23:35.032Z,35.13
2018-08-09T07:24:35.037Z,33.08
2018-08-09T07:25:35.041Z,32.01
2018-08-09T07:26:35.294Z,32.01
2018-08-09T07:27:35.103Z,31.32
2018-08-09T07:28:35.064Z,30.94
2018-08-09T07:29:35.071Z,34.38
2018-08-09T07:30:35.078Z,33.29
2018-08-09T07:31:35.091Z,30.66
2018-08-09T07:32:35.096Z,29.58
2018-08-09T07:33:35.100Z,29.38
2018-08-09T07:34:35.113Z,29.39
2018-08-09T07:35:35.123Z,29.1
2018-08-09T07:36:35.285Z,28.7
2018-08-09T07:37:35.149Z,28.81
2018-08-09T07:38:35.144Z,27.94
2018-08-09T07:39:35.425Z,30.59
2018-08-09T07:40:35.157Z,31.88
2018-08-09T07:41:35.173Z,31.98
2018-08-09T07:42:34.921Z,29.14
2018-08-09T07:43:35.186Z,28.45
2018-08-09T07:44:35.192Z,26.97
2018-08-09T07:45:35.202Z,26.87
2018-08-09T07:46:35.215Z,27.86
2018-08-09T07:47:35.221Z,28.26
2018-08-09T07:48:35.437Z,26.89
2018-08-09T07:49:35.237Z,26.68
2018-08-09T07:50:35.243Z,28.45
2018-08-09T07:51:35.265Z,26.19
2018-08-09T07:52:35.007Z,26.68
2018-08-09T07:53:35.270Z,27.78
2018-08-09T07:54:35.288Z,26.7
2018-08-09T07:55:35.284Z,26.48
2018-08-09T07:56:35.294Z,26.58
2018-08-09T07:57:35.306Z,27.06
2018-08-09T07:58:35.309Z,27.26
2018-08-09T07:59:35.322Z,28.03
2018-08-09T08:00:35.075Z,29.2
2018-08-09T08:01:35.336Z,30.25
2018-08-09T08:02:35.342Z,29.85
2018-08-09T08:03:35.354Z,32.17
2018-08-09T08:04:35.362Z,34.69
2018-08-09T08:05:35.376Z,34.1
2018-08-09T08:06:35.123Z,34.77
2018-08-09T08:07:35.123Z,35.04
2018-08-09T08:08:35.619Z,36.3
2018-08-09T08:09:35.402Z,37.06
2018-08-09T08:10:35.408Z,38.61
2018-08-09T08:11:35.415Z,36.24
2018-08-09T08:12:35.468Z,37.6
2018-08-09T08:13:35.170Z,38.65
2018-08-09T08:14:35.436Z,39.8
2018-08-09T08:15:35.434Z,40.78
2018-08-09T08:16:35.454Z,41.27
2018-08-09T08:17:35.452Z,41.17
2018-08-09T08:18:35.462Z,42.14
2018-08-09T08:19:35.463Z,45.34
2018-08-09T08:20:35.534Z,43.39
2018-08-09T08:21:35.479Z,40.95
2018-08-09T08:22:35.483Z,42.3
2018-08-09T08:23:35.494Z,43.08
2018-08-09T08:24:35.254Z,43.76
2018-08-09T08:25:35.508Z,43.66
2018-08-09T08:26:35.568Z,43.57
2018-08-09T08:27:35.517Z,43.57
2018-08-09T08:28:35.267Z,43.37
2018-08-09T08:29:35.528Z,43.27
2018-08-09T08:30:35.533Z,43.37
2018-08-09T08:31:35.542Z,44.34
2018-08-09T08:32:35.292Z,45.51
2018-08-09T08:33:35.552Z,46
2018-08-09T08:34:35.713Z,49.51
2018-08-09T08:35:35.566Z,46.78
2018-08-09T08:36:35.571Z,43.49
2018-08-09T08:37:35.323Z,44.66
2018-08-09T08:38:35.585Z,43
2018-08-09T08:39:35.590Z,43.37
2018-08-09T08:40:35.341Z,44.62
2018-08-09T08:41:35.749Z,44.71
2018-08-09T08:42:35.352Z,45.98
2018-08-09T08:43:35.611Z,44.42
2018-08-09T08:44:35.364Z,45.29
2018-08-09T08:45:35.371Z,45.98
2018-08-09T08:46:35.630Z,45.98
2018-08-09T08:47:35.764Z,44.24
2018-08-09T08:48:35.650Z,44.34
2018-08-09T08:49:35.651Z,44.46
2018-08-09T08:50:35.654Z,46.22
2018-08-09T08:51:35.659Z,45.54
2018-08-09T08:52:35.665Z,43.51
2018-08-09T08:53:35.669Z,42.83
2018-08-09T08:54:35.678Z,42.54
2018-08-09T08:55:35.682Z,40.8
2018-08-09T08:56:35.431Z,40.78
2018-08-09T08:57:35.697Z,40.5
2018-08-09T08:58:35.703Z,40.6
2018-08-09T08:59:35.709Z,40.99
2018-08-09T09:00:35.713Z,40.21
2018-08-09T09:01:35.718Z,41.09
2018-08-09T09:02:35.725Z,39.92
2018-08-09T09:03:35.733Z,41.38
2018-08-09T09:04:35.740Z,41.67
2018-08-09T09:05:35.743Z,39.9
2018-08-09T09:06:35.750Z,40.19
2018-08-09T09:07:35.755Z,39.31
2018-08-09T09:08:35.759Z,39.31
2018-08-09T09:09:35.770Z,39.31
2018-08-09T09:10:35.772Z,39.02
2018-08-09T09:11:35.778Z,38.43
2018-08-09T09:12:35.786Z,37.87
2018-08-09T09:13:35.862Z,35.53
2018-08-09T09:14:35.801Z,36.21
2018-08-09T09:15:35.803Z,35.53
2018-08-09T09:16:35.811Z,34.26
2018-08-09T09:17:35.818Z,33.01
2018-08-09T09:18:35.824Z,35.25
2018-08-09T09:19:35.827Z,35.74
2018-08-09T09:20:35.836Z,34.78
2018-08-09T09:21:35.841Z,31.96
2018-08-09T09:22:35.845Z,30.79
2018-08-09T09:23:35.859Z,31.67
2018-08-09T09:24:35.859Z,30.9
2018-08-09T09:25:35.865Z,31.1
2018-08-09T09:26:35.872Z,32.07
2018-08-09T09:27:35.882Z,31.1
2018-08-09T09:28:35.888Z,29.93
2018-08-09T09:29:35.891Z,29.16
2018-08-09T09:30:35.899Z,30.82
2018-08-09T09:31:35.903Z,30.52
2018-08-09T09:32:35.914Z,28.77
2018-08-09T09:33:35.664Z,29.55
2018-08-09T09:34:35.677Z,29.74
2018-08-09T09:35:35.932Z,29.64
2018-08-09T09:36:35.941Z,29.25
2018-08-09T09:37:35.957Z,30.33
2018-08-09T09:38:35.956Z,30.51
2018-08-09T09:39:35.962Z,29.35
2018-08-09T09:40:35.971Z,29.64
2018-08-09T09:41:35.986Z,29.74
2018-08-09T09:42:35.986Z,28.38
2018-08-09T09:43:35.990Z,28.86
2018-08-09T09:44:35.999Z,30.33
2018-08-09T09:45:35.748Z,30.52
2018-08-09T09:46:36.013Z,29.66
2018-08-09T09:47:36.019Z,30.35
2018-08-09T09:48:36.031Z,29.56
2018-08-09T09:49:35.780Z,29.77
2018-08-09T09:50:36.043Z,29.28
2018-08-09T09:51:35.796Z,29.87
2018-08-09T09:52:36.053Z,29.28
2018-08-09T09:53:35.804Z,29.28
2018-08-09T09:54:36.070Z,29.18
2018-08-09T09:55:35.821Z,29.28
2018-08-09T09:56:36.084Z,29.48
2018-08-09T09:57:35.837Z,28.79
2018-08-09T09:58:35.845Z,28.02
2018-08-09T09:59:35.851Z,28.81
2018-08-09T10:00:35.863Z,28.61
2018-08-09T10:01:36.152Z,27.81
2018-08-09T10:02:35.874Z,27.33
2018-08-09T10:03:36.142Z,27.52
2018-08-09T10:04:36.146Z,28.4
2018-08-09T10:05:36.157Z,28.4
2018-08-09T10:06:36.161Z,28.69
2018-08-09T10:07:36.180Z,29.28
2018-08-09T10:08:36.181Z,29.28
2018-08-09T10:09:36.185Z,29.18
2018-08-09T10:10:35.944Z,28.89
2018-08-09T10:11:36.203Z,29.58
2018-08-09T10:12:36.222Z,29.18
2018-08-09T10:13:36.219Z,27.72
2018-08-09T10:14:36.225Z,28.5
2018-08-09T10:15:36.231Z,28.69
2018-08-09T10:16:36.237Z,28.4
2018-08-09T10:17:36.251Z,30.75
2018-08-09T10:18:36.257Z,29.98
2018-08-09T10:19:36.274Z,28.31
2018-08-09T10:20:36.272Z,27.83
2018-08-09T10:21:36.021Z,27.73
2018-08-09T10:22:36.284Z,28.02
2018-08-09T10:23:36.295Z,27.92
2018-08-09T10:24:36.300Z,27.04
2018-08-09T10:25:36.312Z,29.59
2018-08-09T10:26:36.059Z,28.01
2018-08-09T10:27:36.323Z,28.78
2018-08-09T10:28:36.332Z,29.06
2018-08-09T10:29:36.338Z,29.35
2018-08-09T10:30:36.347Z,29.45
2018-08-09T10:31:36.351Z,30.43
2018-08-09T10:32:36.368Z,32.87
2018-08-09T10:33:36.370Z,31.62
2018-08-09T10:34:36.381Z,30.35
2018-08-09T10:35:36.509Z,30.15
2018-08-09T10:36:36.137Z,29.46
2018-08-09T10:37:36.409Z,28.89
2018-08-09T10:38:36.411Z,27.91
2018-08-09T10:39:36.419Z,28.4
2018-08-09T10:40:36.440Z,27.72
2018-08-09T10:41:36.434Z,27.34
2018-08-09T10:42:36.440Z,28.12
2018-08-09T10:43:36.448Z,28.41
2018-08-09T10:44:36.462Z,28.02
2018-08-09T10:45:36.462Z,28.81
2018-08-09T10:46:36.471Z,29.39
2018-08-09T10:47:36.218Z,29.39
2018-08-09T10:48:36.230Z,29.08
2018-08-09T10:49:36.499Z,27.91
2018-08-09T10:50:36.502Z,29.58
2018-08-09T10:51:36.251Z,29.58
2018-08-09T10:52:36.522Z,29.48
2018-08-09T10:53:36.530Z,29.28
2018-08-09T10:54:36.276Z,28.59
2018-08-09T10:55:36.641Z,28.99
2018-08-09T10:56:36.292Z,30.93
2018-08-09T10:57:36.553Z,30.54
2018-08-09T10:58:36.308Z,30.43
2018-08-09T10:59:36.568Z,30.72
2018-08-09T11:00:36.576Z,31
2018-08-09T11:01:36.613Z,30.71
2018-08-09T11:02:36.337Z,30.71
2018-08-09T11:03:36.600Z,30.91
2018-08-09T11:04:36.606Z,30.23
2018-08-09T11:05:36.617Z,30.54
2018-08-09T11:06:36.626Z,29.46
2018-08-09T11:07:36.636Z,30.93
2018-08-09T11:08:36.678Z,30.15
2018-08-09T11:09:36.649Z,30.07
2018-08-09T11:10:36.662Z,29.87
2018-08-09T11:11:36.404Z,29.28
2018-08-09T11:12:36.668Z,27.53
2018-08-09T11:13:36.675Z,26.16
2018-08-09T11:14:36.681Z,26.75
2018-08-09T11:15:36.689Z,26.45
2018-08-09T11:16:36.699Z,26.84
2018-08-09T11:17:36.706Z,27.24
2018-08-09T11:18:36.719Z,27.04
2018-08-09T11:19:36.719Z,26.95
2018-08-09T11:20:36.471Z,27.42
2018-08-09T11:21:36.480Z,26.64
2018-08-09T11:22:36.748Z,27.72
2018-08-09T11:23:36.788Z,27.62
2018-08-09T11:24:36.764Z,27.03
2018-08-09T11:25:36.512Z,27.12
2018-08-09T11:26:36.776Z,26.15
2018-08-09T11:27:36.786Z,26.64
2018-08-09T11:28:36.789Z,26.64
2018-08-09T11:29:36.841Z,26.06
2018-08-09T11:30:36.808Z,25.87
2018-08-09T11:31:36.819Z,25.57
2018-08-09T11:32:36.823Z,27.35
2018-08-09T11:33:36.571Z,27.25
2018-08-09T11:34:36.582Z,26.56
2018-08-09T11:35:36.591Z,26.78
2018-08-09T11:36:36.599Z,26.68
2018-08-09T11:37:36.607Z,25.99
2018-08-09T11:38:36.871Z,25.79
2018-08-09T11:39:36.878Z,25.89
2018-08-09T11:40:36.882Z,26.09
2018-08-09T11:41:36.898Z,25.78
2018-08-09T11:42:36.905Z,26.96
2018-08-09T11:43:36.962Z,27.06
2018-08-09T11:44:36.917Z,27.15
2018-08-09T11:45:36.673Z,26.56
2018-08-09T11:46:36.933Z,26.67
2018-08-09T11:47:36.941Z,25.98
2018-08-09T11:48:36.955Z,26.28
2018-08-09T11:49:36.962Z,26.09
2018-08-09T11:50:36.712Z,26.68
2018-08-09T11:51:36.976Z,27.07
2018-08-09T11:52:36.727Z,26.78
2018-08-09T11:53:36.992Z,26.58
2018-08-09T11:54:36.743Z,26.68
2018-08-09T11:55:36.750Z,26.68
2018-08-09T11:56:37.181Z,26.58
2018-08-09T11:57:37.023Z,27.56
2018-08-09T11:58:37.037Z,26.78
2018-08-09T11:59:37.039Z,27.17
2018-08-09T12:00:36.793Z,27.36
2018-08-09T12:01:37.238Z,26.48
2018-08-09T12:02:36.811Z,26.96
2018-08-09T12:03:37.078Z,26.67
2018-08-09T12:04:37.220Z,26.17
2018-08-09T12:05:36.835Z,25.78
2018-08-09T12:06:36.860Z,26.07
2018-08-09T12:07:37.109Z,26.86
2018-08-09T12:08:36.859Z,27.34
2018-08-09T12:09:37.236Z,26.55
2018-08-09T12:10:37.134Z,27.24
2018-08-09T12:11:36.882Z,27.14
2018-08-09T12:12:37.155Z,27.03
2018-08-09T12:13:37.191Z,27.52
2018-08-09T12:14:37.170Z,27.23
2018-08-09T12:15:37.176Z,26.64
2018-08-09T12:16:37.181Z,26.44
2018-08-09T12:17:37.190Z,27.33
2018-08-09T12:18:37.202Z,25.46
2018-08-09T12:19:37.203Z,25.37
2018-08-09T12:20:37.291Z,24.77
2018-08-09T12:21:37.220Z,23.21
2018-08-09T12:22:37.230Z,23.8
2018-08-09T12:23:36.979Z,24.38
2018-08-09T12:24:36.989Z,24.68
2018-08-09T12:25:37.261Z,24.88
2018-08-09T12:26:37.003Z,25.48
2018-08-09T12:27:37.269Z,26.16
2018-08-09T12:28:37.281Z,25.67
2018-08-09T12:29:37.285Z,26.16
2018-08-09T12:30:37.035Z,26.06
2018-08-09T12:31:37.302Z,26.06
2018-08-09T12:32:37.310Z,26.64
2018-08-09T12:33:37.313Z,26.93
2018-08-09T12:34:37.321Z,26.93
2018-08-09T12:35:37.330Z,26.93
2018-08-09T12:36:37.396Z,27.52
2018-08-09T12:37:37.349Z,27.33
2018-08-09T12:38:37.355Z,26.54
2018-08-09T12:39:37.370Z,26.64
2018-08-09T12:40:37.115Z,25.95
2018-08-09T12:41:37.387Z,27.23
2018-08-09T12:42:37.397Z,27.7
2018-08-09T12:43:37.397Z,27.61
2018-08-09T12:44:37.405Z,28.08
2018-08-09T12:45:37.544Z,28.67
2018-08-09T12:46:37.420Z,29.24
2018-08-09T12:47:37.432Z,30.02
2018-08-09T12:48:37.179Z,29.32
2018-08-09T12:49:37.443Z,29.32
2018-08-09T12:50:37.451Z,29.93
2018-08-09T12:51:37.203Z,29.93
2018-08-09T12:52:37.209Z,29.14
2018-08-09T12:53:37.472Z,29.25
2018-08-09T12:54:37.483Z,29.45
2018-08-09T12:55:37.488Z,29.35